Courtland, Kansas
Current Conditions -  °F | °C
As of 7:55 AM on Sunday 23 Nov 2014 (Local Time) from KCNK Reporting Station
Overcast Overcast  
Wind Chill: 51°   Ceiling: 4100
Heat Index: 51°   Visibility: 10mi
Dew Point: 50°   Wind: 10mph
Humidity: 96%   Direction: 190°S
Pressure: 29.49"   Gusts: NA
Location:  39.78°N, 97.89°W
Report Text: KCNK 231355Z AUTO 19009KT 10SM BKN041 OVC055 11/10 A2949 RMK AO2 SLP984 T01060100
Loading
Personal Weather Stations






























Interactive Weather Map New forecast layout! Learn more

10-Day Weather Forecast

Advertisements
Track Severe Weather on mobile